Latest Weather Observations for Fort Denison

IDN60901

Issued at 10:55 pm EDT Tuesday 21 October 2014 (issued every 10 minutes, with the page automatically refreshed every 10 minutes)

About weather observations | Map of Sydney area stations | Latest observations for Sydney area | Other Formats
Station Details ID: 066022 Name: FORT DENISON Lat: -33.86 Lon: 151.23 Height: 5.0 m
Data from the previous 72 hours. | See also: Recent months for locations in New South Wales
Date/Time
EDT
Tmp

°C
App
Tmp
°C
Dew
Point
°C
Rel
Hum
%
Delta-T

°C
Wind Press
QNH
hPa
Press
MSL
hPa
Rain
since
9 am
mm
Dir
 
Spd
km/h
Gust
km/h
Spd
kts
Gust
kts
21/10:30pm - - - - - NE 9 17 5 9 - - -
21/10:00pm - - - - - ENE 19 24 10 13 - - -
21/09:30pm - - - - - ENE 13 19 7 10 - - -
21/09:00pm - - - - - ENE 17 22 9 12 - - -
21/08:30pm - - - - - ENE 22 28 12 15 - - -
21/08:00pm - - - - - NE 11 19 6 10 - - -
21/07:30pm - - - - - ENE 17 22 9 12 - - -
21/07:00pm - - - - - ENE 17 22 9 12 - - -
21/06:30pm - - - - - ENE 17 20 9 11 - - -
21/06:00pm - - - - - E 17 22 9 12 - - -
21/05:30pm - - - - - E 17 22 9 12 - - -
21/05:00pm - - - - - ENE 15 20 8 11 - - -
21/04:30pm - - - - - E 17 22 9 12 - - -
21/04:00pm - - - - - E 17 24 9 13 - - -
21/03:30pm - - - - - E 19 22 10 12 - - -
21/03:00pm - - - - - E 19 22 10 12 - - -
21/02:30pm - - - - - E 17 22 9 12 - - -
21/02:00pm - - - - - E 17 24 9 13 - - -
21/01:30pm - - - - - E 19 24 10 13 - - -
21/01:00pm - - - - - E 20 26 11 14 - - -
21/12:30pm - - - - - E 13 24 7 13 - - -
21/12:00pm - - - - - E 17 24 9 13 - - -
21/11:30am - - - - - E 15 20 8 11 - - -
21/11:00am - - - - - E 15 22 8 12 - - -
21/10:30am - - - - - ESE 17 22 9 12 - - -
21/10:00am - - - - - E 17 22 9 12 - - -
21/09:30am - - - - - E 17 20 9 11 - - -
21/09:00am - - - - - ESE 19 26 10 14 - - -
21/08:30am - - - - - ESE 17 22 9 12 - - -
21/08:00am - - - - - ESE 13 19 7 10 - - -
21/07:30am - - - - - ESE 13 17 7 9 - - -
21/07:00am - - - - - SE 13 19 7 10 - - -
21/06:30am - - - - - ESE 15 20 8 11 - - -
21/06:00am - - - - - ESE 13 19 7 10 - - -
21/05:30am - - - - - ESE 17 20 9 11 - - -
21/05:00am - - - - - SE 13 19 7 10 - - -
21/04:30am - - - - - SE 9 15 5 8 - - -
21/04:00am - - - - - SSE 13 22 7 12 - - -
21/03:30am - - - - - S 7 13 4 7 - - -
21/03:00am - - - - - SE 11 20 6 11 - - -
21/02:30am - - - - - ESE 11 20 6 11 - - -
21/02:00am - - - - - ESE 17 22 9 12 - - -
21/01:30am - - - - - SE 11 17 6 9 - - -
21/01:00am - - - - - SE 11 20 6 11 - - -
21/12:30am - - - - - SE 13 24 7 13 - - -
21/12:00am - - - - - SE 17 24 9 13 - - -
 
Date/Time
EDT
Tmp

°C
App
Tmp
°C
Dew
Point
°C
Rel
Hum
%
Delta-T

°C
Wind Press
QNH
hPa
Press
MSL
hPa
Rain
since
9 am
mm
Dir
 
Spd
km/h
Gust
km/h
Spd
kts
Gust
kts
20/11:30pm - - - - - ESE 17 20 9 11 - - -
20/11:00pm - - - - - SE 20 26 11 14 - - -
20/10:30pm - - - - - ESE 13 22 7 12 - - -
20/10:00pm - - - - - ESE 20 26 11 14 - - -
20/09:30pm - - - - - SE 11 19 6 10 - - -
20/09:00pm - - - - - ESE 13 17 7 9 - - -
20/08:30pm - - - - - SSE 20 33 11 18 - - -
20/08:00pm - - - - - SSE 13 19 7 10 - - -
20/07:30pm - - - - - SSE 20 33 11 18 - - -
20/07:00pm - - - - - SSE 19 28 10 15 - - -
20/06:30pm - - - - - SSE 22 35 12 19 - - -
20/06:00pm - - - - - SSE 20 26 11 14 - - -
20/05:30pm - - - - - SSE 20 32 11 17 - - -
20/05:00pm - - - - - SSE 22 33 12 18 - - -
20/04:30pm - - - - - SSE 28 43 15 23 - - -
20/04:00pm - - - - - SSE 22 39 12 21 - - -
20/03:30pm - - - - - SSE 22 32 12 17 - - -
20/03:00pm - - - - - S 22 33 12 18 - - -
20/02:30pm - - - - - SSE 24 33 13 18 - - -
20/02:00pm - - - - - S 26 39 14 21 - - -
20/01:30pm - - - - - SSE 24 39 13 21 - - -
20/01:00pm - - - - - S 24 39 13 21 - - -
20/12:30pm - - - - - S 24 39 13 21 - - -
20/12:00pm - - - - - S 30 43 16 23 - - -
20/11:30am - - - - - S 32 50 17 27 - - -
20/11:16am - - - - - S 28 50 15 27 - - -
20/11:00am - - - - - S 39 52 21 28 - - -
20/10:30am - - - - - S 32 50 17 27 - - -
20/10:00am - - - - - S 35 54 19 29 - - -
20/09:30am - - - - - S 35 57 19 31 - - -
20/09:00am - - - - - S 33 52 18 28 - - -
20/08:30am - - - - - S 33 63 18 34 - - -
20/08:00am - - - - - S 39 61 21 33 - - -
20/07:31am - - - - - S 35 54 19 29 - - -
20/07:30am - - - - - S 37 54 20 29 - - -
20/07:00am - - - - - S 39 65 21 35 - - -
20/06:30am - - - - - S 43 69 23 37 - - -
20/06:23am - - - - - S 43 61 23 33 - - -
20/06:00am - - - - - SSW 37 57 20 31 - - -
20/05:48am - - - - - SW 28 50 15 27 - - -
20/05:46am - - - - - SW 28 35 15 19 - - -
20/05:30am - - - - - SW 9 15 5 8 - - -
20/05:00am - - - - - WNW 7 9 4 5 - - -
20/04:30am - - - - - WNW 6 6 3 3 - - -
20/04:00am - - - - - WNW 7 11 4 6 - - -
20/03:30am - - - - - NW 4 7 2 4 - - -
20/03:00am - - - - - CALM 0 4 0 2 - - -
20/02:30am - - - - - NNE 4 6 2 3 - - -
20/02:00am - - - - - WNW 4 6 2 3 - - -
20/01:30am - - - - - N 4 6 2 3 - - -
20/01:00am - - - - - W 9 11 5 6 - - -
20/12:30am - - - - - WNW 6 7 3 4 - - -
20/12:00am - - - - - NW 2 7 1 4 - - -
 
Date/Time
EDT
Tmp

°C
App
Tmp
°C
Dew
Point
°C
Rel
Hum
%
Delta-T

°C
Wind Press
QNH
hPa
Press
MSL
hPa
Rain
since
9 am
mm
Dir
 
Spd
km/h
Gust
km/h
Spd
kts
Gust
kts
19/11:30pm - - - - - NE 6 9 3 5 - - -
19/11:00pm - - - - - NE 7 13 4 7 - - -
19/10:30pm - - - - - E 7 11 4 6 - - -
19/10:00pm - - - - - ENE 6 15 3 8 - - -
19/09:30pm - - - - - NE 7 19 4 10 - - -
19/09:00pm - - - - - N 15 28 8 15 - - -
19/08:30pm - - - - - NNE 30 39 16 21 - - -
19/08:00pm - - - - - NNE 28 39 15 21 - - -
19/07:30pm - - - - - NNE 30 41 16 22 - - -
19/07:00pm - - - - - NNE 26 35 14 19 - - -
19/06:30pm - - - - - NNE 28 39 15 21 - - -
19/06:00pm - - - - - NNE 24 33 13 18 - - -
19/05:30pm - - - - - NNE 22 33 12 18 - - -
19/05:00pm - - - - - NNE 24 33 13 18 - - -
19/04:30pm - - - - - NE 20 33 11 18 - - -
19/04:00pm - - - - - NE 17 26 9 14 - - -
19/03:30pm - - - - - NNE 20 32 11 17 - - -
19/03:00pm - - - - - NE 19 32 10 17 - - -
19/02:30pm - - - - - NE 20 30 11 16 - - -
19/02:00pm - - - - - NE 22 37 12 20 - - -
19/01:30pm - - - - - NE 20 30 11 16 - - -
19/01:00pm - - - - - NE 17 26 9 14 - - -
19/12:30pm - - - - - NE 17 24 9 13 - - -
19/12:00pm - - - - - NE 15 20 8 11 - - -
19/11:30am - - - - - E 17 20 9 11 - - -
19/11:00am - - - - - E 15 19 8 10 - - -
19/10:30am - - - - - NNW 6 19 3 10 - - -
19/10:00am - - - - - ESE 2 4 1 2 - - -
19/09:30am - - - - - WSW 4 9 2 5 - - -
19/09:00am - - - - - W 9 11 5 6 - - -
19/08:30am - - - - - W 11 13 6 7 - - -
19/08:00am - - - - - NW 9 15 5 8 - - -
19/07:30am - - - - - NNW 7 11 4 6 - - -
19/07:00am - - - - - NW 6 9 3 5 - - -
19/06:30am - - - - - NNW 7 11 4 6 - - -
19/06:00am - - - - - NW 6 11 3 6 - - -
19/05:30am - - - - - W 2 4 1 2 - - -
19/05:00am - - - - - WNW 6 7 3 4 - - -
19/04:30am - - - - - WNW 7 11 4 6 - - -
19/04:00am - - - - - NW 9 13 5 7 - - -
19/03:30am - - - - - WNW 11 15 6 8 - - -
19/03:00am - - - - - NW 7 11 4 6 - - -
19/02:30am - - - - - NW 6 9 3 5 - - -
19/02:00am - - - - - NW 9 11 5 6 - - -
19/01:30am - - - - - NW 6 9 3 5 - - -
19/01:00am - - - - - WNW 9 13 5 7 - - -
19/12:30am - - - - - WNW 7 9 4 5 - - -
19/12:00am - - - - - WNW 6 9 3 5 - - -
 
Date/Time
EDT
Tmp

°C
App
Tmp
°C
Dew
Point
°C
Rel
Hum
%
Delta-T

°C
Wind Press
QNH
hPa
Press
MSL
hPa
Rain
since
9 am
mm
Dir
 
Spd
km/h
Gust
km/h
Spd
kts
Gust
kts
18/11:30pm - - - - - NW 6 7 3 4 - - -
18/11:00pm - - - - - NW 6 7 3 4 - - -

Latest Capital City Observations: Canberra | Sydney | Melbourne | Brisbane | Adelaide | Perth | Hobart | Darwin

Other Formats:

Comma delimited format used in spreadsheet applications
http://www.bom.gov.au/fwo/IDN60901/IDN60901.94769.axf

JavaScript Object Notation format (JSON) in row-major order
http://www.bom.gov.au/fwo/IDN60901/IDN60901.94769.json